Terminal Aerodrome Forecast
Issued by NWS Chicago, IL

Home | Current Version | Previous Version | Text Only | Print | Product List | Glossary On
Versions: 1 2 3 4 5 6 7 8 9 10 11 12 13 14 15 16 17 18 19 20 21 22 23 24 25 26 27
009
FTUS43 KLOT 052057 AAA
TAFRFD
TAF AMD
KRFD 052057Z 0521/0618 26006KT P6SM FEW110 BKN250
     FM052300 22004KT P6SM SCT045 OVC090
     FM060700 20006KT P6SM OVC060
     FM061500 23010KT P6SM SCT035 BKN250=

USA.gov is the U.S. government's official web portal to all federal, state and local government web resources and services.